Time,TemperatureF,DewpointF,PressureIn,WindDirection,WindDirectionDegrees,WindSpeedMPH,WindSpeedGustMPH,Humidity,HourlyPrecipIn,Conditions,Clouds,dailyrainin,SolarRadiationWatts/m^2,SoftwareType,DateUTC
2013-02-04 00:21:00,32.0,19.0,-100.00,NE,39,0.0,3.0,59,0.00,,,0.00,0.000000,,2013-02-04 07:21:00,
2013-02-04 00:32:00,32.0,19.0,-100.00,NE,39,0.0,3.0,59,0.00,,,0.00,0.000000,,2013-02-04 07:32:00,
2013-02-04 00:42:00,32.0,19.0,-100.00,NE,39,0.0,3.0,59,0.00,,,0.00,0.000000,,2013-02-04 07:42:00,
2013-02-04 00:52:00,32.0,19.0,-100.00,NE,39,0.0,3.0,59,0.00,,,0.00,0.000000,,2013-02-04 07:52:00,
2013-02-04 01:21:00,29.0,20.0,-100.00,South,184,3.0,6.0,68,0.00,,,0.00,0.000000,,2013-02-04 08:21:00,
2013-02-04 01:31:00,29.0,20.0,-100.00,South,184,3.0,6.0,68,0.00,,,0.00,0.000000,,2013-02-04 08:31:00,
2013-02-04 01:42:00,29.0,20.0,-100.00,South,184,3.0,6.0,68,0.00,,,0.00,0.000000,,2013-02-04 08:42:00,
2013-02-04 01:52:00,29.0,20.0,-100.00,South,184,3.0,6.0,68,0.00,,,0.00,0.000000,,2013-02-04 08:52:00,
2013-02-04 02:21:00,27.0,18.0,-100.00,SSW,193,3.0,4.0,69,0.00,,,0.00,0.000000,,2013-02-04 09:21:00,
2013-02-04 02:32:00,27.0,18.0,-100.00,SSW,193,3.0,4.0,69,0.00,,,0.00,0.000000,,2013-02-04 09:32:00,
2013-02-04 02:42:00,27.0,18.0,-100.00,SSW,193,3.0,4.0,69,0.00,,,0.00,0.000000,,2013-02-04 09:42:00,
2013-02-04 02:51:00,27.0,18.0,-100.00,SSW,193,3.0,4.0,69,0.00,,,0.00,0.000000,,2013-02-04 09:51:00,
2013-02-04 03:21:00,27.0,19.0,-100.00,NW,307,2.0,6.0,70,0.00,,,0.00,0.000000,,2013-02-04 10:21:00,
2013-02-04 03:32:00,27.0,19.0,-100.00,NW,307,2.0,6.0,70,0.00,,,0.00,0.000000,,2013-02-04 10:32:00,
2013-02-04 03:41:00,27.0,19.0,-100.00,NW,307,2.0,6.0,70,0.00,,,0.00,0.000000,,2013-02-04 10:41:00,
2013-02-04 03:51:00,27.0,19.0,-100.00,NW,307,2.0,6.0,70,0.00,,,0.00,0.000000,,2013-02-04 10:51:00,
2013-02-04 04:22:00,27.0,19.0,-100.00,NNW,344,1.0,5.0,70,0.00,,,0.00,0.000000,,2013-02-04 11:22:00,
2013-02-04 04:32:00,27.0,19.0,-100.00,NNW,344,1.0,5.0,70,0.00,,,0.00,0.000000,,2013-02-04 11:32:00,
2013-02-04 04:42:00,27.0,19.0,-100.00,NNW,344,1.0,5.0,70,0.00,,,0.00,0.000000,,2013-02-04 11:42:00,
2013-02-04 04:52:00,27.0,19.0,-100.00,NNW,344,1.0,5.0,70,0.00,,,0.00,0.000000,,2013-02-04 11:52:00,
2013-02-04 05:22:00,27.0,18.0,-100.00,NNE,15,0.0,3.0,69,0.00,,,0.00,0.000000,,2013-02-04 12:22:00,
2013-02-04 05:32:00,27.0,18.0,-100.00,NNE,15,0.0,3.0,69,0.00,,,0.00,0.000000,,2013-02-04 12:32:00,
2013-02-04 05:42:00,27.0,18.0,-100.00,NNE,15,0.0,3.0,69,0.00,,,0.00,0.000000,,2013-02-04 12:42:00,
2013-02-04 05:52:00,27.0,18.0,-100.00,NNE,15,0.0,3.0,69,0.00,,,0.00,0.000000,,2013-02-04 12:52:00,
2013-02-04 06:21:00,27.0,18.0,-100.00,ENE,68,1.0,3.0,67,0.00,,,0.00,0.000000,,2013-02-04 13:21:00,
2013-02-04 06:33:00,27.0,18.0,-100.00,ENE,68,1.0,3.0,67,0.00,,,0.00,0.000000,,2013-02-04 13:33:00,
2013-02-04 06:42:00,27.0,18.0,-100.00,ENE,68,1.0,3.0,67,0.00,,,0.00,0.000000,,2013-02-04 13:42:00,
2013-02-04 06:51:00,27.0,18.0,-100.00,ENE,68,1.0,3.0,67,0.00,,,0.00,0.000000,,2013-02-04 13:51:00,
2013-02-04 07:22:00,25.0,18.0,-100.00,NNE,20,3.0,5.0,74,0.00,,,0.00,0.000000,,2013-02-04 14:22:00,
2013-02-04 07:32:00,25.0,18.0,-100.00,NNE,20,3.0,5.0,74,0.00,,,0.00,0.000000,,2013-02-04 14:32:00,
2013-02-04 07:42:00,25.0,18.0,-100.00,NNE,20,3.0,5.0,74,0.00,,,0.00,0.000000,,2013-02-04 14:42:00,
2013-02-04 07:52:00,25.0,18.0,-100.00,NNE,20,3.0,5.0,74,0.00,,,0.00,0.000000,,2013-02-04 14:52:00,
2013-02-04 08:23:00,26.0,18.0,-100.00,ENE,71,1.0,4.0,72,0.00,,,0.00,14.000000,,2013-02-04 15:23:00,
2013-02-04 08:33:00,26.0,18.0,-100.00,ENE,71,1.0,4.0,72,0.00,,,0.00,14.000000,,2013-02-04 15:33:00,
2013-02-04 08:43:00,26.0,18.0,-100.00,ENE,71,1.0,4.0,72,0.00,,,0.00,14.000000,,2013-02-04 15:43:00,
2013-02-04 08:52:00,26.0,18.0,-100.00,ENE,71,1.0,4.0,72,0.00,,,0.00,14.000000,,2013-02-04 15:52:00,
2013-02-04 11:22:00,35.0,17.0,-100.00,West,263,4.0,8.0,48,-99.99,,,0.00,285.000000,,2013-02-04 18:22:00,
2013-02-04 11:32:00,35.0,17.0,-100.00,West,263,4.0,8.0,48,-99.99,,,0.00,285.000000,,2013-02-04 18:32:00,
2013-02-04 11:42:00,35.0,17.0,-100.00,West,263,4.0,8.0,48,-99.99,,,0.00,285.000000,,2013-02-04 18:42:00,
2013-02-04 11:52:00,35.0,17.0,-100.00,West,263,4.0,8.0,48,-99.99,,,0.00,285.000000,,2013-02-04 18:52:00,
2013-02-04 12:22:00,37.0,17.0,-100.00,West,259,6.0,11.0,43,0.00,,,0.00,493.000000,,2013-02-04 19:22:00,
2013-02-04 12:32:00,37.0,17.0,-100.00,West,259,6.0,11.0,43,0.00,,,0.00,493.000000,,2013-02-04 19:32:00,
2013-02-04 12:42:00,37.0,17.0,-100.00,West,259,6.0,11.0,43,0.00,,,0.00,493.000000,,2013-02-04 19:42:00,
2013-02-04 12:51:00,37.0,17.0,-100.00,West,259,6.0,11.0,43,0.00,,,0.00,493.000000,,2013-02-04 19:51:00,
2013-02-04 13:22:00,39.0,17.0,-100.00,WSW,253,5.0,10.0,41,0.00,,,0.00,374.000000,,2013-02-04 20:22:00,
2013-02-04 13:32:00,39.0,17.0,-100.00,WSW,253,5.0,10.0,41,0.00,,,0.00,374.000000,,2013-02-04 20:32:00,
2013-02-04 13:42:00,39.0,17.0,-100.00,WSW,253,5.0,10.0,41,0.00,,,0.00,374.000000,,2013-02-04 20:42:00,
2013-02-04 13:52:00,39.0,17.0,-100.00,WSW,253,5.0,10.0,41,0.00,,,0.00,374.000000,,2013-02-04 20:52:00,
2013-02-04 14:22:00,41.0,19.0,-100.00,West,260,7.0,13.0,40,0.00,,,0.00,430.000000,,2013-02-04 21:22:00,
2013-02-04 14:32:00,41.0,19.0,-100.00,West,260,7.0,13.0,40,0.00,,,0.00,430.000000,,2013-02-04 21:32:00,
2013-02-04 14:42:00,41.0,19.0,-100.00,West,260,7.0,13.0,40,0.00,,,0.00,430.000000,,2013-02-04 21:42:00,
2013-02-04 14:52:00,41.0,19.0,-100.00,West,260,7.0,13.0,40,0.00,,,0.00,430.000000,,2013-02-04 21:52:00,
2013-02-04 15:21:00,41.0,20.0,-100.00,West,281,8.0,21.0,42,0.00,,,0.00,220.000000,,2013-02-04 22:21:00,
2013-02-04 15:32:00,41.0,20.0,-100.00,West,281,8.0,21.0,42,0.00,,,0.00,220.000000,,2013-02-04 22:32:00,
2013-02-04 15:42:00,41.0,20.0,-100.00,West,281,8.0,21.0,42,0.00,,,0.00,220.000000,,2013-02-04 22:42:00,
2013-02-04 15:51:00,41.0,20.0,-100.00,West,281,8.0,21.0,42,0.00,,,0.00,220.000000,,2013-02-04 22:51:00,
2013-02-04 16:21:00,42.0,19.0,-100.00,WNW,298,10.0,25.0,39,0.00,,,0.00,117.000000,,2013-02-04 23:21:00,
2013-02-04 16:32:00,42.0,19.0,-100.00,WNW,298,10.0,25.0,39,0.00,,,0.00,117.000000,,2013-02-04 23:32:00,
2013-02-04 16:42:00,42.0,19.0,-100.00,WNW,298,10.0,25.0,39,0.00,,,0.00,117.000000,,2013-02-04 23:42:00,
2013-02-04 16:52:00,42.0,19.0,-100.00,WNW,298,10.0,25.0,39,0.00,,,0.00,117.000000,,2013-02-04 23:52:00,
2013-02-04 17:22:00,41.0,19.0,-100.00,West,277,7.0,18.0,40,0.00,,,0.00,61.000000,,2013-02-05 00:22:00,
2013-02-04 17:32:00,41.0,19.0,-100.00,West,277,7.0,18.0,40,0.00,,,0.00,61.000000,,2013-02-05 00:32:00,
2013-02-04 17:42:00,41.0,19.0,-100.00,West,277,7.0,18.0,40,0.00,,,0.00,61.000000,,2013-02-05 00:42:00,
2013-02-04 17:51:00,41.0,19.0,-100.00,West,277,7.0,18.0,40,0.00,,,0.00,61.000000,,2013-02-05 00:51:00,
2013-02-04 18:22:00,36.0,17.0,-100.00,NW,308,3.0,13.0,46,0.00,,,0.00,3.000000,,2013-02-05 01:22:00,
2013-02-04 18:32:00,36.0,17.0,-100.00,NW,308,3.0,13.0,46,0.00,,,0.00,3.000000,,2013-02-05 01:32:00,
2013-02-04 18:42:00,36.0,17.0,-100.00,NW,308,3.0,13.0,46,0.00,,,0.00,3.000000,,2013-02-05 01:42:00,
2013-02-04 18:52:00,36.0,17.0,-100.00,NW,308,3.0,13.0,46,0.00,,,0.00,3.000000,,2013-02-05 01:52:00,
2013-02-04 19:22:00,35.0,18.0,-100.00,WNW,298,2.0,7.0,49,0.00,,,0.00,0.000000,,2013-02-05 02:22:00,
2013-02-04 19:32:00,35.0,18.0,-100.00,WNW,298,2.0,7.0,49,0.00,,,0.00,0.000000,,2013-02-05 02:32:00,
2013-02-04 19:42:00,35.0,18.0,-100.00,WNW,298,2.0,7.0,49,0.00,,,0.00,0.000000,,2013-02-05 02:42:00,
2013-02-04 19:52:00,35.0,18.0,-100.00,WNW,298,2.0,7.0,49,0.00,,,0.00,0.000000,,2013-02-05 02:52:00,
2013-02-04 20:21:00,36.0,20.0,-100.00,WNW,294,4.0,8.0,51,0.00,,,0.00,0.000000,,2013-02-05 03:21:00,
2013-02-04 20:32:00,36.0,20.0,-100.00,WNW,294,4.0,8.0,51,0.00,,,0.00,0.000000,,2013-02-05 03:32:00,
2013-02-04 20:42:00,36.0,20.0,-100.00,WNW,294,4.0,8.0,51,0.00,,,0.00,0.000000,,2013-02-05 03:42:00,
2013-02-04 20:51:00,36.0,20.0,-100.00,WNW,294,4.0,8.0,51,0.00,,,0.00,0.000000,,2013-02-05 03:51:00,
2013-02-04 21:21:00,34.0,22.0,-100.00,SSW,211,2.0,7.0,60,0.00,,,0.00,0.000000,,2013-02-05 04:21:00,
2013-02-04 21:32:00,34.0,22.0,-100.00,SSW,211,2.0,7.0,60,0.00,,,0.00,0.000000,,2013-02-05 04:32:00,
2013-02-04 21:42:00,34.0,22.0,-100.00,SSW,211,2.0,7.0,60,0.00,,,0.00,0.000000,,2013-02-05 04:42:00,
2013-02-04 21:52:00,34.0,22.0,-100.00,SSW,211,2.0,7.0,60,0.00,,,0.00,0.000000,,2013-02-05 04:52:00,
2013-02-04 22:22:00,33.0,22.0,-100.00,SW,221,4.0,7.0,64,0.00,,,0.00,0.000000,,2013-02-05 05:22:00,
2013-02-04 22:32:00,33.0,22.0,-100.00,SW,221,4.0,7.0,64,0.00,,,0.00,0.000000,,2013-02-05 05:32:00,
2013-02-04 22:42:00,33.0,22.0,-100.00,SW,221,4.0,7.0,64,0.00,,,0.00,0.000000,,2013-02-05 05:42:00,
2013-02-04 22:52:00,33.0,22.0,-100.00,SW,221,4.0,7.0,64,0.00,,,0.00,0.000000,,2013-02-05 05:52:00,
2013-02-04 23:21:00,35.0,20.0,-100.00,West,264,7.0,13.0,54,0.00,,,0.00,0.000000,,2013-02-05 06:21:00,
2013-02-04 23:32:00,35.0,20.0,-100.00,West,264,7.0,13.0,54,0.00,,,0.00,0.000000,,2013-02-05 06:32:00,
2013-02-04 23:42:00,35.0,20.0,-100.00,West,264,7.0,13.0,54,0.00,,,0.00,0.000000,,2013-02-05 06:42:00,
2013-02-04 23:51:00,35.0,20.0,-100.00,West,264,7.0,13.0,54,0.00,,,0.00,0.000000,,2013-02-05 06:51:00,